Currently 88°F in Pinon Hills, California, USA
88°F
90°F / 63°F
2 mph N
0.00"
Friday, July 21, 2017 1:48 PM PDT

Pinon Hills, California Weather Summary
Last 36 Hours

Temperature Winds Hourly Humidity Dewpoint
Time Report Norm Report Norm Max Gusts Precip. Rpt. Norm Rpt. Norm Pressure
1Fri 01:48 PM  88.1°F  88°F  2 mph N  2 mph  10 mph  0.00"  7%  21%  14°F  41°F  30.02"
2Fri 01:21 PM  89.5°F  88°F  calm  2 mph  none  ----  7%  21%  14°F  41°F  30.03"
Fri 01:00 PM  88.3°F  87°F  calm  2 mph  14 mph  0.00"  7%  21%  13°F  41°F  30.04"
Fri 12:00 PM  85.5°F  86°F  3 mph W  2 mph  10 mph  0.00"  7%  22%  13°F  42°F  30.05"
Fri 11:00 AM  83.4°F  84°F  4 mph NE  1 mph  8 mph  0.00"  10%  23%  19°F  41°F  30.06"
Fri 10:00 AM  80.8°F  81°F  2 mph E  1 mph  6 mph  0.00"  14%  26%  25°F  42°F  30.05"
Fri 09:00 AM  80.0°F  79°F  1 mph E  1 mph  4 mph  0.00"  14%  27%  25°F  42°F  30.05"
Fri 08:00 AM  74.2°F  76°F  calm  1 mph  3 mph  0.00"  17%  29%  25°F  41°F  30.05"
Fri 07:00 AM  68.0°F  72°F  calm  1 mph  6 mph  0.00"  24%  35%  28°F  41°F  30.06"
Fri 06:00 AM  64.1°F  67°F  3 mph SW  2 mph  6 mph  0.00"  19%  38%  19°F  40°F  30.05"
Fri 05:00 AM  63.4°F  67°F  1 mph S  2 mph  5 mph  0.00"  20%  38%  20°F  40°F  30.04"
3Fri 04:44 AM  62.7°F  67°F  2 mph S  2 mph  4 mph  ----  21%  38%  20°F  40°F  30.03"
Fri 04:00 AM  63.9°F  68°F  2 mph SW  2 mph  5 mph  0.00"  17%  38%  16°F  40°F  30.03"
Fri 03:00 AM  66.0°F  70°F  1 mph SW  2 mph  6 mph  0.00"  17%  37%  18°F  41°F  30.03"
Fri 02:00 AM  65.8°F  70°F  2 mph SW  2 mph  5 mph  0.00"  20%  36%  22°F  41°F  30.04"
Fri 01:00 AM  66.6°F  71°F  3 mph SW  2 mph  6 mph  0.00"  21%  35%  24°F  41°F  30.05"
Fri 12:00 AM  67.5°F  71°F  1 mph S  2 mph  5 mph  0.00"  21%  36%  24°F  42°F  30.06"
Thu 11:00 PM  69.4°F  72°F  2 mph S  2 mph  5 mph  0.00"  21%  35%  26°F  42°F  30.06"
Thu 10:00 PM  68.7°F  74°F  1 mph SW  2 mph  3 mph  0.00"  31%  34%  36°F  43°F  30.07"
Thu 09:00 PM  73.9°F  76°F  1 mph NE  3 mph  7 mph  0.00"  26%  33%  35°F  44°F  30.06"
Thu 08:00 PM  79.3°F  80°F  2 mph SE  3 mph  13 mph  0.00"  20%  30%  33°F  44°F  30.04"
Thu 07:00 PM  84.3°F  84°F  6 mph S  5 mph  17 mph  0.00"  18%  26%  34°F  44°F  30.02"
Thu 06:00 PM  87.9°F  86°F  2 mph N  4 mph  16 mph  0.00"  15%  23%  33°F  43°F  29.99"
Thu 05:00 PM  89.5°F  87°F  calm  4 mph  none  0.00"  14%  23%  32°F  43°F  30.01"
Thu 04:00 PM  89.9°F  88°F  calm  3 mph  none  0.00"  10%  22%  23°F  43°F  30.03"
Thu 03:00 PM  91.0°F  89°F  calm  2 mph  none  0.00"  8%  21%  18°F  43°F  30.05"
Thu 02:00 PM  89.8°F  88°F  calm  2 mph  none  0.00"  9%  21%  21°F  42°F  30.07"
Thu 01:00 PM  88.1°F  87°F  calm  2 mph  none  0.00"  12%  21%  27°F  42°F  30.08"
Thu 12:00 PM  87.5°F  86°F  calm  1 mph  12 mph  0.00"  14%  22%  30°F  42°F  30.09"
Thu 11:00 AM  84.3°F  84°F  calm  1 mph  none  0.00"  17%  24%  33°F  41°F  30.11"
Thu 10:00 AM  82.1°F  81°F  calm  1 mph  none  0.00"  22%  26%  38°F  42°F  30.10"
Thu 09:00 AM  77.9°F  79°F  calm  1 mph  none  0.00"  31%  27%  43°F  42°F  30.10"
Thu 08:00 AM  75.1°F  76°F  calm  1 mph  6 mph  0.00"  33%  29%  43°F  40°F  30.10"
Thu 07:00 AM  70.5°F  72°F  2 mph S  1 mph  3 mph  0.00"  38%  34%  43°F  41°F  30.10"
Thu 06:00 AM  66.2°F  67°F  calm  2 mph  4 mph  0.00"  40%  37%  41°F  39°F  30.09"
Thu 05:00 AM  69.0°F  67°F  calm  1 mph  3 mph  0.00"  32%  37%  36°F  39°F  30.07"
Thu 04:00 AM  68.8°F  68°F  1 mph S  2 mph  4 mph  0.00"  37%  36%  40°F  39°F  30.06"
Thu 03:00 AM  69.5°F  70°F  calm  2 mph  4 mph  0.00"  39%  35%  43°F  40°F  30.07"
Thu 02:00 AM  73.1°F  70°F  2 mph S  2 mph  6 mph  0.00"  37%  34%  44°F  40°F  30.08"

  1. Current weather data. No green row appears if the current weather data is also the high or low for the current day.
  2. High temperature for the current day.
  3. Low temperature for the current day.

The Pinon Hills, California weather pages are a service of WeatherCurrents.
Copyright ©Fri Jul 21 13:48:56 PDT 2017  WeatherCurrents. All rights reserved. - Submit questions and comments - Privacy Policy

This page automatically refreshes every 10 minutes.